RYR7LY LIMC-LICJ
Flight info
| Callsign | RYR7LY |
|---|---|
| Flight time | 1h 25m |
| Altitude | 37000 |
| Route | ROBAS DCT EKDIR DCT LURON |
| Aircraft | B738/M-SDE2E3FGHIRWXY/LB1 |
Departure
| Time | 2026-05-07 18:59 |
|---|---|
| Airport | Milan Malpensa International Airport (LIMC) |
Arrival
| Time | 2026-05-07 20:25 |
|---|---|
| Airport | Falcone–Borsellino Airport (LICJ) |
| Time | Latitude | Longitude | Altitude | Speed | Heading |
|---|---|---|---|---|---|
| 2026-05-07 18:26 | 45.62864 | 8.71587 | 733 ft | 0 kts | 169° |
| 2026-05-07 18:45 | 45.62880 | 8.71583 | 733 ft | 2 kts | 168° |
| 2026-05-07 18:45 | 45.62896 | 8.71578 | 732 ft | 2 kts | 167° |
| 2026-05-07 18:45 | 45.62912 | 8.71572 | 733 ft | 2 kts | 163° |
| 2026-05-07 18:46 | 45.62927 | 8.71564 | 734 ft | 2 kts | 144° |
| 2026-05-07 18:46 | 45.62934 | 8.71546 | 733 ft | 1 kts | 76° |
| 2026-05-07 18:46 | 45.62933 | 8.71542 | 734 ft | 0 kts | 77° |
| 2026-05-07 18:47 | 45.62933 | 8.71546 | 734 ft | 2 kts | 77° |
| 2026-05-07 18:48 | 45.62940 | 8.71593 | 734 ft | 7 kts | 78° |
| 2026-05-07 18:48 | 45.62951 | 8.71665 | 734 ft | 7 kts | 78° |
| 2026-05-07 18:48 | 45.62943 | 8.71735 | 732 ft | 7 kts | 130° |
| 2026-05-07 18:48 | 45.62898 | 8.71766 | 733 ft | 7 kts | 171° |
| 2026-05-07 18:49 | 45.62841 | 8.71781 | 730 ft | 10 kts | 169° |
| 2026-05-07 18:49 | 45.62752 | 8.71805 | 730 ft | 16 kts | 169° |
| 2026-05-07 18:49 | 45.62628 | 8.71840 | 728 ft | 21 kts | 169° |
| 2026-05-07 18:49 | 45.62474 | 8.71882 | 726 ft | 23 kts | 169° |
| 2026-05-07 18:50 | 45.62316 | 8.71926 | 722 ft | 23 kts | 169° |
| 2026-05-07 18:50 | 45.62164 | 8.71968 | 719 ft | 22 kts | 169° |
| 2026-05-07 18:50 | 45.62016 | 8.72008 | 715 ft | 21 kts | 169° |
| 2026-05-07 18:50 | 45.61875 | 8.72047 | 713 ft | 21 kts | 169° |
| 2026-05-07 18:51 | 45.61736 | 8.72086 | 704 ft | 20 kts | 169° |
| 2026-05-07 18:51 | 45.61600 | 8.72123 | 696 ft | 19 kts | 169° |
| 2026-05-07 18:51 | 45.61467 | 8.72160 | 699 ft | 21 kts | 169° |
| 2026-05-07 18:51 | 45.61313 | 8.72203 | 695 ft | 24 kts | 169° |
| 2026-05-07 18:52 | 45.61142 | 8.72251 | 688 ft | 26 kts | 169° |
| 2026-05-07 18:52 | 45.60964 | 8.72301 | 691 ft | 25 kts | 169° |
| 2026-05-07 18:52 | 45.60796 | 8.72348 | 685 ft | 24 kts | 169° |
| 2026-05-07 18:52 | 45.60742 | 8.72363 | 684 ft | 0 kts | 169° |
| 2026-05-07 18:53 | 45.60707 | 8.72373 | 681 ft | 13 kts | 166° |
| 2026-05-07 18:53 | 45.60634 | 8.72497 | 683 ft | 21 kts | 98° |
| 2026-05-07 18:53 | 45.60618 | 8.72700 | 683 ft | 20 kts | 95° |
| 2026-05-07 18:53 | 45.60604 | 8.72896 | 683 ft | 19 kts | 96° |
| 2026-05-07 18:54 | 45.60590 | 8.73084 | 682 ft | 19 kts | 96° |
| 2026-05-07 18:54 | 45.60612 | 8.73258 | 682 ft | 18 kts | 47° |
| 2026-05-07 18:54 | 45.60725 | 8.73327 | 684 ft | 18 kts | 20° |
| 2026-05-07 18:54 | 45.60834 | 8.73388 | 685 ft | 17 kts | 22° |
| 2026-05-07 18:55 | 45.60946 | 8.73398 | 687 ft | 16 kts | 349° |
| 2026-05-07 18:55 | 45.61054 | 8.73368 | 691 ft | 16 kts | 349° |
| 2026-05-07 18:55 | 45.61158 | 8.73338 | 691 ft | 16 kts | 349° |
| 2026-05-07 18:55 | 45.61256 | 8.73311 | 691 ft | 15 kts | 349° |
| 2026-05-07 18:56 | 45.61365 | 8.73280 | 697 ft | 18 kts | 349° |
| 2026-05-07 18:56 | 45.61499 | 8.73242 | 696 ft | 20 kts | 349° |
| 2026-05-07 18:56 | 45.61605 | 8.73248 | 697 ft | 13 kts | 45° |
| 2026-05-07 18:56 | 45.61630 | 8.73371 | 703 ft | 13 kts | 81° |
| 2026-05-07 18:57 | 45.61632 | 8.73424 | 703 ft | 0 kts | 97° |
| 2026-05-07 18:57 | 45.61632 | 8.73428 | 703 ft | 3 kts | 101° |
| 2026-05-07 18:57 | 45.61608 | 8.73491 | 694 ft | 9 kts | 121° |
| 2026-05-07 18:58 | 45.61589 | 8.73586 | 697 ft | 12 kts | 93° |
| 2026-05-07 18:58 | 45.61630 | 8.73721 | 699 ft | 17 kts | 29° |
| 2026-05-07 18:58 | 45.61754 | 8.73703 | 701 ft | 27 kts | 349° |
| 2026-05-07 18:58 | 45.62176 | 8.73587 | 716 ft | 96 kts | 349° |
| 2026-05-07 18:59 | 45.63041 | 8.73348 | 734 ft | 154 kts | 349° |
| 2026-05-07 18:59 | 45.64197 | 8.73038 | 1142 ft | 174 kts | 349° |
| 2026-05-07 18:59 | 45.65392 | 8.72750 | 1933 ft | 177 kts | 357° |
| 2026-05-07 18:59 | 45.66580 | 8.73194 | 2588 ft | 184 kts | 37° |
| 2026-05-07 19:00 | 45.67372 | 8.74759 | 2904 ft | 207 kts | 71° |
| 2026-05-07 19:00 | 45.67846 | 8.76687 | 3575 ft | 207 kts | 69° |
| 2026-05-07 19:00 | 45.68481 | 8.78579 | 4082 ft | 216 kts | 51° |
| 2026-05-07 19:00 | 45.69610 | 8.80008 | 4690 ft | 217 kts | 37° |
| 2026-05-07 19:01 | 45.70810 | 8.81331 | 5270 ft | 220 kts | 39° |
| 2026-05-07 19:01 | 45.71969 | 8.82709 | 5974 ft | 216 kts | 48° |
| 2026-05-07 19:01 | 45.72728 | 8.84639 | 6232 ft | 233 kts | 76° |
| 2026-05-07 19:01 | 45.72967 | 8.86963 | 6675 ft | 241 kts | 91° |
| 2026-05-07 19:02 | 45.72769 | 8.89355 | 7151 ft | 250 kts | 107° |
| 2026-05-07 19:02 | 45.71975 | 8.91590 | 7834 ft | 253 kts | 133° |
| 2026-05-07 19:02 | 45.70586 | 8.93091 | 8453 ft | 258 kts | 150° |
| 2026-05-07 19:02 | 45.69104 | 8.94495 | 9272 ft | 255 kts | 140° |
| 2026-05-07 19:03 | 45.67829 | 8.96258 | 10004 ft | 256 kts | 131° |
| 2026-05-07 19:03 | 45.66665 | 8.98254 | 10623 ft | 261 kts | 128° |
| 2026-05-07 19:03 | 45.65925 | 8.99628 | 11034 ft | 263 kts | 127° |
| 2026-05-07 19:03 | 45.64440 | 9.02452 | 11885 ft | 270 kts | 130° |
| 2026-05-07 19:04 | 45.63620 | 9.03839 | 12101 ft | 282 kts | 132° |
| 2026-05-07 19:04 | 45.62249 | 9.06009 | 12284 ft | 306 kts | 134° |
| 2026-05-07 19:04 | 45.60760 | 9.08313 | 12466 ft | 328 kts | 134° |
| 2026-05-07 19:04 | 45.59158 | 9.10790 | 12700 ft | 348 kts | 134° |
| 2026-05-07 19:05 | 45.57494 | 9.13373 | 13261 ft | 356 kts | 134° |
| 2026-05-07 19:05 | 45.57117 | 9.13960 | 13419 ft | 357 kts | 134° |
| 2026-05-07 19:05 | 45.55436 | 9.16583 | 14115 ft | 361 kts | 134° |
| 2026-05-07 19:05 | 45.53731 | 9.19249 | 14811 ft | 364 kts | 134° |
| 2026-05-07 19:06 | 45.52022 | 9.21924 | 15505 ft | 367 kts | 134° |
| 2026-05-07 19:06 | 45.48558 | 9.27346 | 16860 ft | 375 kts | 134° |
| 2026-05-07 19:06 | 45.46789 | 9.30112 | 17545 ft | 379 kts | 134° |
| 2026-05-07 19:07 | 45.45000 | 9.32906 | 18202 ft | 383 kts | 134° |
| 2026-05-07 19:07 | 45.43199 | 9.35716 | 18773 ft | 387 kts | 134° |
| 2026-05-07 19:07 | 45.41373 | 9.38563 | 19356 ft | 391 kts | 134° |
| 2026-05-07 19:07 | 45.39530 | 9.41434 | 19915 ft | 395 kts | 135° |
| 2026-05-07 19:08 | 45.37671 | 9.44326 | 20474 ft | 398 kts | 135° |
| 2026-05-07 19:08 | 45.35793 | 9.47245 | 21042 ft | 401 kts | 135° |
| 2026-05-07 19:08 | 45.33897 | 9.50187 | 21569 ft | 405 kts | 135° |
| 2026-05-07 19:08 | 45.31979 | 9.53161 | 22100 ft | 409 kts | 135° |
| 2026-05-07 19:09 | 45.30049 | 9.56151 | 22620 ft | 413 kts | 135° |
| 2026-05-07 19:09 | 45.28097 | 9.59172 | 23129 ft | 417 kts | 135° |
| 2026-05-07 19:09 | 45.26128 | 9.62217 | 23615 ft | 420 kts | 135° |
| 2026-05-07 19:09 | 45.24140 | 9.65290 | 24037 ft | 424 kts | 135° |
| 2026-05-07 19:10 | 45.22137 | 9.68379 | 24442 ft | 427 kts | 136° |
| 2026-05-07 19:10 | 45.20119 | 9.71487 | 24826 ft | 431 kts | 136° |
| 2026-05-07 19:10 | 45.17944 | 9.74400 | 25207 ft | 430 kts | 146° |
| 2026-05-07 19:10 | 45.15540 | 9.76921 | 25630 ft | 430 kts | 149° |
| 2026-05-07 19:11 | 45.13083 | 9.79330 | 26112 ft | 430 kts | 150° |
| 2026-05-07 19:11 | 45.10574 | 9.81663 | 26499 ft | 432 kts | 153° |
| 2026-05-07 19:11 | 45.07984 | 9.83810 | 26853 ft | 432 kts | 158° |
| 2026-05-07 19:11 | 45.05267 | 9.85649 | 27232 ft | 433 kts | 161° |
| 2026-05-07 19:12 | 45.02518 | 9.87407 | 27638 ft | 435 kts | 161° |
| 2026-05-07 19:12 | 44.99751 | 9.89156 | 28008 ft | 437 kts | 161° |
| 2026-05-07 19:12 | 44.96966 | 9.90911 | 28373 ft | 440 kts | 161° |
| 2026-05-07 19:12 | 44.94188 | 9.92805 | 28700 ft | 447 kts | 156° |
| 2026-05-07 19:13 | 44.91524 | 9.95123 | 29028 ft | 452 kts | 152° |
| 2026-05-07 19:13 | 44.88919 | 9.97649 | 29354 ft | 457 kts | 150° |
| 2026-05-07 19:13 | 44.86431 | 10.00167 | 29671 ft | 460 kts | 150° |
| 2026-05-07 19:13 | 44.83885 | 10.02781 | 29996 ft | 463 kts | 150° |
| 2026-05-07 19:14 | 44.81282 | 10.05469 | 30267 ft | 465 kts | 150° |
| 2026-05-07 19:14 | 44.78672 | 10.08175 | 30534 ft | 467 kts | 150° |
| 2026-05-07 19:14 | 44.76050 | 10.10900 | 30801 ft | 469 kts | 150° |
| 2026-05-07 19:14 | 44.73425 | 10.13634 | 31031 ft | 471 kts | 150° |
| 2026-05-07 19:15 | 44.70787 | 10.16416 | 31204 ft | 475 kts | 149° |
| 2026-05-07 19:15 | 44.68385 | 10.19674 | 31476 ft | 489 kts | 134° |
| 2026-05-07 19:15 | 44.66334 | 10.23497 | 31926 ft | 487 kts | 134° |
| 2026-05-07 19:15 | 44.64155 | 10.27093 | 32296 ft | 480 kts | 140° |
| 2026-05-07 19:16 | 44.61755 | 10.30303 | 32582 ft | 476 kts | 146° |
| 2026-05-07 19:16 | 44.59187 | 10.33195 | 32957 ft | 471 kts | 150° |
| 2026-05-07 19:16 | 44.56539 | 10.35880 | 33338 ft | 468 kts | 153° |
| 2026-05-07 19:16 | 44.53870 | 10.38461 | 33719 ft | 465 kts | 153° |
| 2026-05-07 19:17 | 44.51197 | 10.41016 | 34040 ft | 464 kts | 154° |
| 2026-05-07 19:17 | 44.48538 | 10.43570 | 34288 ft | 465 kts | 153° |
| 2026-05-07 19:17 | 44.45868 | 10.46160 | 34550 ft | 466 kts | 153° |
| 2026-05-07 19:17 | 44.43219 | 10.48751 | 34852 ft | 464 kts | 153° |
| 2026-05-07 19:18 | 44.40583 | 10.51341 | 35160 ft | 463 kts | 153° |
| 2026-05-07 19:18 | 44.37952 | 10.53927 | 35406 ft | 462 kts | 153° |
| 2026-05-07 19:18 | 44.35318 | 10.56513 | 35635 ft | 463 kts | 153° |
| 2026-05-07 19:18 | 44.32688 | 10.59092 | 35880 ft | 462 kts | 153° |
| 2026-05-07 19:19 | 44.30063 | 10.61663 | 36144 ft | 461 kts | 153° |
| 2026-05-07 19:19 | 44.27432 | 10.64236 | 36376 ft | 461 kts | 153° |
| 2026-05-07 19:19 | 44.24812 | 10.66795 | 36635 ft | 460 kts | 153° |
| 2026-05-07 19:19 | 44.22189 | 10.69346 | 36894 ft | 458 kts | 154° |
| 2026-05-07 19:20 | 44.19455 | 10.71558 | 37089 ft | 449 kts | 163° |
| 2026-05-07 19:20 | 44.16573 | 10.73132 | 37101 ft | 445 kts | 168° |
| 2026-05-07 19:20 | 44.10711 | 10.75925 | 37061 ft | 444 kts | 169° |
| 2026-05-07 19:21 | 44.04916 | 10.78682 | 37073 ft | 437 kts | 169° |
| 2026-05-07 19:21 | 43.99219 | 10.81435 | 37050 ft | 432 kts | 169° |
| 2026-05-07 19:22 | 43.93531 | 10.84194 | 37037 ft | 438 kts | 169° |
| 2026-05-07 19:22 | 43.87759 | 10.86996 | 37013 ft | 442 kts | 169° |
| 2026-05-07 19:23 | 43.81941 | 10.89823 | 37008 ft | 445 kts | 169° |
| 2026-05-07 19:23 | 43.76097 | 10.92659 | 37009 ft | 445 kts | 169° |
| 2026-05-07 19:24 | 43.70246 | 10.95493 | 37006 ft | 445 kts | 169° |
| 2026-05-07 19:24 | 43.64465 | 10.98292 | 36992 ft | 435 kts | 169° |
| 2026-05-07 19:25 | 43.58935 | 11.00960 | 37034 ft | 433 kts | 169° |
| 2026-05-07 19:25 | 43.53239 | 11.03692 | 37022 ft | 434 kts | 169° |
| 2026-05-07 19:26 | 43.47538 | 11.06424 | 37012 ft | 434 kts | 169° |
| 2026-05-07 19:26 | 43.41827 | 11.09158 | 37018 ft | 435 kts | 169° |
| 2026-05-07 19:27 | 43.36118 | 11.11886 | 37022 ft | 435 kts | 169° |
| 2026-05-07 19:27 | 43.30395 | 11.14616 | 37032 ft | 435 kts | 169° |
| 2026-05-07 19:28 | 43.24664 | 11.17344 | 37034 ft | 436 kts | 169° |
| 2026-05-07 19:28 | 43.18927 | 11.20070 | 37023 ft | 436 kts | 169° |
| 2026-05-07 19:29 | 43.13186 | 11.22792 | 37011 ft | 436 kts | 169° |
| 2026-05-07 19:29 | 43.07452 | 11.25506 | 36981 ft | 436 kts | 169° |
| 2026-05-07 19:30 | 43.01724 | 11.28212 | 37005 ft | 435 kts | 169° |
| 2026-05-07 19:30 | 42.96029 | 11.30897 | 36993 ft | 433 kts | 169° |
| 2026-05-07 19:31 | 42.90331 | 11.33578 | 36994 ft | 432 kts | 169° |
| 2026-05-07 19:31 | 42.84649 | 11.36245 | 36982 ft | 432 kts | 169° |
| 2026-05-07 19:32 | 42.78974 | 11.38903 | 36996 ft | 431 kts | 169° |
| 2026-05-07 19:32 | 42.73294 | 11.41558 | 36998 ft | 432 kts | 169° |
| 2026-05-07 19:33 | 42.67599 | 11.44216 | 36998 ft | 432 kts | 169° |
| 2026-05-07 19:33 | 42.61914 | 11.46864 | 36984 ft | 432 kts | 169° |
| 2026-05-07 19:34 | 42.56219 | 11.49513 | 36989 ft | 432 kts | 169° |
| 2026-05-07 19:34 | 42.50569 | 11.52135 | 36985 ft | 432 kts | 169° |
| 2026-05-07 19:35 | 42.44876 | 11.54772 | 36981 ft | 432 kts | 169° |
| 2026-05-07 19:35 | 42.39186 | 11.57402 | 36981 ft | 432 kts | 169° |
| 2026-05-07 19:36 | 42.33502 | 11.60025 | 36983 ft | 431 kts | 169° |
| 2026-05-07 19:36 | 42.27824 | 11.62640 | 36973 ft | 431 kts | 169° |
| 2026-05-07 19:37 | 42.22146 | 11.65249 | 36976 ft | 431 kts | 169° |
| 2026-05-07 19:37 | 42.16475 | 11.67851 | 36957 ft | 430 kts | 169° |
| 2026-05-07 19:38 | 42.10808 | 11.70446 | 36967 ft | 430 kts | 169° |
| 2026-05-07 19:38 | 42.05148 | 11.73033 | 36993 ft | 430 kts | 169° |
| 2026-05-07 19:39 | 41.99490 | 11.75613 | 36987 ft | 430 kts | 169° |
| 2026-05-07 19:39 | 41.94744 | 11.77774 | 37013 ft | 430 kts | 169° |
| 2026-05-07 19:40 | 41.88148 | 11.80772 | 37031 ft | 431 kts | 169° |
| 2026-05-07 19:40 | 41.82461 | 11.83351 | 37026 ft | 432 kts | 169° |
| 2026-05-07 19:41 | 41.76767 | 11.85928 | 37011 ft | 432 kts | 169° |
| 2026-05-07 19:41 | 41.71064 | 11.88506 | 36999 ft | 433 kts | 169° |
| 2026-05-07 19:42 | 41.65346 | 11.91085 | 36970 ft | 434 kts | 169° |
| 2026-05-07 19:42 | 41.59624 | 11.93661 | 36955 ft | 434 kts | 169° |
| 2026-05-07 19:43 | 41.53890 | 11.96238 | 36941 ft | 435 kts | 169° |
| 2026-05-07 19:43 | 41.48150 | 11.98813 | 36950 ft | 435 kts | 169° |
| 2026-05-07 19:44 | 41.42565 | 12.01313 | 36954 ft | 435 kts | 169° |
| 2026-05-07 19:44 | 41.36821 | 12.03880 | 36954 ft | 436 kts | 169° |
| 2026-05-07 19:45 | 41.31071 | 12.06445 | 36945 ft | 435 kts | 169° |
| 2026-05-07 19:45 | 41.25375 | 12.08981 | 36952 ft | 435 kts | 169° |
| 2026-05-07 19:46 | 41.19630 | 12.11534 | 36958 ft | 436 kts | 169° |
| 2026-05-07 19:46 | 41.13876 | 12.14086 | 36957 ft | 436 kts | 169° |
| 2026-05-07 19:47 | 41.09060 | 12.16219 | 36945 ft | 436 kts | 170° |
| 2026-05-07 19:47 | 41.03309 | 12.18762 | 36947 ft | 435 kts | 170° |
| 2026-05-07 19:48 | 40.97577 | 12.21291 | 36953 ft | 435 kts | 170° |
| 2026-05-07 19:48 | 40.91830 | 12.23822 | 36949 ft | 435 kts | 170° |
| 2026-05-07 19:49 | 40.86091 | 12.26346 | 36954 ft | 434 kts | 170° |
| 2026-05-07 19:49 | 40.80397 | 12.28845 | 36952 ft | 434 kts | 170° |
| 2026-05-07 19:50 | 40.74636 | 12.31369 | 36950 ft | 433 kts | 171° |
| 2026-05-07 19:50 | 40.68929 | 12.33864 | 36950 ft | 432 kts | 171° |
| 2026-05-07 19:51 | 40.63263 | 12.36338 | 36938 ft | 431 kts | 171° |
| 2026-05-07 19:51 | 40.57582 | 12.38813 | 36943 ft | 430 kts | 171° |
| 2026-05-07 19:52 | 40.51902 | 12.41280 | 36926 ft | 429 kts | 171° |
| 2026-05-07 19:52 | 40.46234 | 12.43738 | 36831 ft | 429 kts | 171° |
| 2026-05-07 19:53 | 40.43411 | 12.44965 | 36527 ft | 425 kts | 171° |
| 2026-05-07 19:53 | 40.40627 | 12.46178 | 36268 ft | 419 kts | 172° |
| 2026-05-07 19:53 | 40.37874 | 12.47375 | 36007 ft | 414 kts | 172° |
| 2026-05-07 19:53 | 40.35155 | 12.48554 | 35749 ft | 411 kts | 172° |
| 2026-05-07 19:54 | 40.32450 | 12.49722 | 35509 ft | 409 kts | 172° |
| 2026-05-07 19:54 | 40.29754 | 12.50883 | 35258 ft | 407 kts | 171° |
| 2026-05-07 19:54 | 40.27072 | 12.52038 | 35021 ft | 405 kts | 171° |
| 2026-05-07 19:54 | 40.24392 | 12.53191 | 34781 ft | 404 kts | 171° |
| 2026-05-07 19:55 | 40.21724 | 12.54337 | 34524 ft | 403 kts | 171° |
| 2026-05-07 19:55 | 40.19079 | 12.55476 | 34240 ft | 398 kts | 171° |
| 2026-05-07 19:55 | 40.16457 | 12.56606 | 33891 ft | 395 kts | 171° |
| 2026-05-07 19:55 | 40.13862 | 12.57722 | 33485 ft | 392 kts | 171° |
| 2026-05-07 19:56 | 40.11284 | 12.58829 | 33099 ft | 388 kts | 171° |
| 2026-05-07 19:56 | 40.08725 | 12.59927 | 32725 ft | 385 kts | 171° |
| 2026-05-07 19:56 | 40.06192 | 12.61012 | 32357 ft | 382 kts | 171° |
| 2026-05-07 19:56 | 40.03675 | 12.62090 | 32000 ft | 379 kts | 171° |
| 2026-05-07 19:57 | 40.01180 | 12.63157 | 31641 ft | 376 kts | 171° |
| 2026-05-07 19:57 | 39.98703 | 12.64216 | 31294 ft | 374 kts | 171° |
| 2026-05-07 19:57 | 39.96242 | 12.65266 | 30941 ft | 371 kts | 171° |
| 2026-05-07 19:57 | 39.93795 | 12.66310 | 30592 ft | 369 kts | 171° |
| 2026-05-07 19:58 | 39.91359 | 12.67349 | 30258 ft | 367 kts | 171° |
| 2026-05-07 19:58 | 39.88938 | 12.68380 | 29892 ft | 365 kts | 171° |
| 2026-05-07 19:58 | 39.86525 | 12.69407 | 29485 ft | 363 kts | 171° |
| 2026-05-07 19:58 | 39.84136 | 12.70424 | 29100 ft | 360 kts | 171° |
| 2026-05-07 19:59 | 39.81762 | 12.71434 | 28733 ft | 357 kts | 170° |
| 2026-05-07 19:59 | 39.79413 | 12.72432 | 28367 ft | 354 kts | 170° |
| 2026-05-07 19:59 | 39.77075 | 12.73425 | 27997 ft | 352 kts | 170° |
| 2026-05-07 19:59 | 39.74762 | 12.74407 | 27668 ft | 348 kts | 170° |
| 2026-05-07 20:00 | 39.72463 | 12.75382 | 27312 ft | 346 kts | 169° |
| 2026-05-07 20:00 | 39.70186 | 12.76347 | 26974 ft | 343 kts | 169° |
| 2026-05-07 20:00 | 39.67921 | 12.77305 | 26609 ft | 341 kts | 169° |
| 2026-05-07 20:00 | 39.65675 | 12.78255 | 26284 ft | 339 kts | 169° |
| 2026-05-07 20:01 | 39.63437 | 12.79201 | 25954 ft | 337 kts | 169° |
| 2026-05-07 20:01 | 39.61205 | 12.80143 | 25615 ft | 337 kts | 168° |
| 2026-05-07 20:01 | 39.58972 | 12.81084 | 25280 ft | 337 kts | 168° |
| 2026-05-07 20:01 | 39.56724 | 12.82030 | 24933 ft | 344 kts | 168° |
| 2026-05-07 20:02 | 39.54442 | 12.82986 | 24574 ft | 353 kts | 168° |
| 2026-05-07 20:02 | 39.52073 | 12.83982 | 24192 ft | 354 kts | 167° |
| 2026-05-07 20:02 | 39.49734 | 12.84969 | 23833 ft | 353 kts | 167° |
| 2026-05-07 20:02 | 39.47400 | 12.85954 | 23456 ft | 352 kts | 167° |
| 2026-05-07 20:03 | 39.45103 | 12.86923 | 23050 ft | 351 kts | 167° |
| 2026-05-07 20:03 | 39.42763 | 12.87908 | 22668 ft | 349 kts | 167° |
| 2026-05-07 20:03 | 39.40457 | 12.88878 | 22308 ft | 347 kts | 167° |
| 2026-05-07 20:03 | 39.38176 | 12.89837 | 21954 ft | 344 kts | 167° |
| 2026-05-07 20:04 | 39.35901 | 12.90791 | 21609 ft | 342 kts | 167° |
| 2026-05-07 20:04 | 39.33650 | 12.91735 | 21263 ft | 340 kts | 167° |
| 2026-05-07 20:04 | 39.31440 | 12.92661 | 20929 ft | 338 kts | 167° |
| 2026-05-07 20:04 | 39.29213 | 12.93593 | 20575 ft | 336 kts | 167° |
| 2026-05-07 20:05 | 39.26995 | 12.94520 | 20248 ft | 334 kts | 167° |
| 2026-05-07 20:05 | 39.24793 | 12.95441 | 19917 ft | 332 kts | 167° |
| 2026-05-07 20:05 | 39.22601 | 12.96356 | 19586 ft | 330 kts | 166° |
| 2026-05-07 20:05 | 39.20420 | 12.97266 | 19252 ft | 329 kts | 166° |
| 2026-05-07 20:06 | 39.18246 | 12.98173 | 18928 ft | 327 kts | 166° |
| 2026-05-07 20:06 | 39.16084 | 12.99074 | 18603 ft | 326 kts | 166° |
| 2026-05-07 20:06 | 39.13924 | 12.99974 | 18266 ft | 325 kts | 166° |
| 2026-05-07 20:06 | 39.11901 | 13.00816 | 17916 ft | 324 kts | 166° |
| 2026-05-07 20:07 | 39.09758 | 13.01708 | 17558 ft | 323 kts | 166° |
| 2026-05-07 20:07 | 39.07633 | 13.02592 | 17216 ft | 321 kts | 166° |
| 2026-05-07 20:07 | 39.05515 | 13.03473 | 16880 ft | 318 kts | 166° |
| 2026-05-07 20:07 | 39.03417 | 13.04344 | 16559 ft | 316 kts | 166° |
| 2026-05-07 20:08 | 39.01344 | 13.05205 | 16236 ft | 314 kts | 166° |
| 2026-05-07 20:08 | 38.99279 | 13.06061 | 15923 ft | 312 kts | 166° |
| 2026-05-07 20:08 | 38.97222 | 13.06914 | 15604 ft | 310 kts | 166° |
| 2026-05-07 20:08 | 38.95174 | 13.07763 | 15295 ft | 308 kts | 166° |
| 2026-05-07 20:09 | 38.93133 | 13.08608 | 14977 ft | 307 kts | 166° |
| 2026-05-07 20:09 | 38.91102 | 13.09448 | 14658 ft | 306 kts | 165° |
| 2026-05-07 20:09 | 38.89075 | 13.10287 | 14336 ft | 306 kts | 165° |
| 2026-05-07 20:10 | 38.85031 | 13.11940 | 13723 ft | 303 kts | 167° |
| 2026-05-07 20:10 | 38.83010 | 13.12658 | 13463 ft | 300 kts | 168° |
| 2026-05-07 20:10 | 38.80990 | 13.13340 | 13201 ft | 300 kts | 168° |
| 2026-05-07 20:10 | 38.78970 | 13.14018 | 12939 ft | 300 kts | 168° |
| 2026-05-07 20:11 | 38.76960 | 13.14696 | 12692 ft | 300 kts | 168° |
| 2026-05-07 20:11 | 38.74951 | 13.15378 | 12439 ft | 299 kts | 168° |
| 2026-05-07 20:11 | 38.72950 | 13.16061 | 12187 ft | 297 kts | 168° |
| 2026-05-07 20:11 | 38.70963 | 13.16742 | 11942 ft | 295 kts | 168° |
| 2026-05-07 20:12 | 38.68989 | 13.17418 | 11693 ft | 293 kts | 168° |
| 2026-05-07 20:12 | 38.67042 | 13.18189 | 11420 ft | 293 kts | 158° |
| 2026-05-07 20:12 | 38.65257 | 13.19435 | 11067 ft | 291 kts | 151° |
| 2026-05-07 20:12 | 38.63548 | 13.20821 | 10632 ft | 291 kts | 149° |
| 2026-05-07 20:13 | 38.61856 | 13.22222 | 10273 ft | 287 kts | 150° |
| 2026-05-07 20:13 | 38.60194 | 13.23582 | 9941 ft | 282 kts | 150° |
| 2026-05-07 20:13 | 38.58542 | 13.24913 | 9500 ft | 280 kts | 151° |
| 2026-05-07 20:13 | 38.56888 | 13.26228 | 9090 ft | 281 kts | 151° |
| 2026-05-07 20:14 | 38.55231 | 13.27534 | 8832 ft | 278 kts | 152° |
| 2026-05-07 20:14 | 38.53592 | 13.28819 | 8575 ft | 275 kts | 152° |
| 2026-05-07 20:14 | 38.51962 | 13.30091 | 8279 ft | 274 kts | 152° |
| 2026-05-07 20:14 | 38.50333 | 13.31359 | 7996 ft | 273 kts | 152° |
| 2026-05-07 20:15 | 38.48716 | 13.32615 | 7725 ft | 271 kts | 152° |
| 2026-05-07 20:15 | 38.47131 | 13.33846 | 7450 ft | 269 kts | 152° |
| 2026-05-07 20:15 | 38.45517 | 13.35098 | 7092 ft | 267 kts | 152° |
| 2026-05-07 20:15 | 38.43951 | 13.36311 | 6710 ft | 267 kts | 152° |
| 2026-05-07 20:16 | 38.42365 | 13.37538 | 6351 ft | 266 kts | 152° |
| 2026-05-07 20:16 | 38.40789 | 13.38757 | 6030 ft | 263 kts | 152° |
| 2026-05-07 20:16 | 38.39251 | 13.39948 | 5886 ft | 255 kts | 151° |
| 2026-05-07 20:16 | 38.37750 | 13.41109 | 5764 ft | 248 kts | 151° |
| 2026-05-07 20:17 | 38.36307 | 13.42224 | 5729 ft | 237 kts | 152° |
| 2026-05-07 20:17 | 38.34929 | 13.43288 | 5679 ft | 227 kts | 153° |
| 2026-05-07 20:17 | 38.33589 | 13.44321 | 5619 ft | 225 kts | 152° |
| 2026-05-07 20:17 | 38.32205 | 13.45278 | 5448 ft | 229 kts | 166° |
| 2026-05-07 20:18 | 38.30652 | 13.45273 | 5229 ft | 224 kts | 202° |
| 2026-05-07 20:18 | 38.29416 | 13.44146 | 5001 ft | 219 kts | 233° |
| 2026-05-07 20:18 | 38.28680 | 13.42471 | 4786 ft | 216 kts | 246° |
| 2026-05-07 20:18 | 38.28102 | 13.40708 | 4535 ft | 216 kts | 248° |
| 2026-05-07 20:19 | 38.27533 | 13.38945 | 4298 ft | 213 kts | 247° |
| 2026-05-07 20:19 | 38.26971 | 13.37230 | 4052 ft | 208 kts | 247° |
| 2026-05-07 20:19 | 38.26423 | 13.35569 | 3833 ft | 200 kts | 247° |
| 2026-05-07 20:19 | 38.25895 | 13.33963 | 3592 ft | 193 kts | 247° |
| 2026-05-07 20:20 | 38.25382 | 13.32411 | 3377 ft | 188 kts | 246° |
| 2026-05-07 20:20 | 38.24878 | 13.30894 | 3173 ft | 185 kts | 247° |
| 2026-05-07 20:20 | 38.24383 | 13.29400 | 2949 ft | 181 kts | 246° |
| 2026-05-07 20:20 | 38.23897 | 13.27940 | 2725 ft | 178 kts | 246° |
| 2026-05-07 20:21 | 38.23417 | 13.26503 | 2468 ft | 175 kts | 246° |
| 2026-05-07 20:21 | 38.22947 | 13.25094 | 2244 ft | 171 kts | 246° |
| 2026-05-07 20:21 | 38.22486 | 13.23720 | 2015 ft | 166 kts | 246° |
| 2026-05-07 20:21 | 38.22050 | 13.22399 | 1766 ft | 157 kts | 246° |
| 2026-05-07 20:22 | 38.21661 | 13.21183 | 1671 ft | 138 kts | 246° |
| 2026-05-07 20:22 | 38.21287 | 13.20090 | 1456 ft | 133 kts | 245° |
| 2026-05-07 20:22 | 38.20929 | 13.19016 | 1269 ft | 131 kts | 245° |
| 2026-05-07 20:22 | 38.20552 | 13.17945 | 1043 ft | 138 kts | 245° |
| 2026-05-07 20:23 | 38.20160 | 13.16812 | 927 ft | 140 kts | 244° |
| 2026-05-07 20:23 | 38.19766 | 13.15674 | 750 ft | 142 kts | 246° |
| 2026-05-07 20:23 | 38.19388 | 13.14506 | 528 ft | 144 kts | 245° |
| 2026-05-07 20:23 | 38.19000 | 13.13340 | 348 ft | 144 kts | 246° |
| 2026-05-07 20:24 | 38.18604 | 13.12162 | 138 ft | 144 kts | 248° |
| 2026-05-07 20:24 | 38.18230 | 13.11037 | 62 ft | 124 kts | 248° |
| 2026-05-07 20:24 | 38.17952 | 13.10194 | 62 ft | 82 kts | 247° |
| 2026-05-07 20:24 | 38.17782 | 13.09682 | 69 ft | 53 kts | 247° |
| 2026-05-07 20:25 | 38.17646 | 13.09279 | 69 ft | 47 kts | 246° |
| 2026-05-07 20:25 | 38.17526 | 13.08928 | 68 ft | 37 kts | 247° |
| 2026-05-07 20:25 | 38.17509 | 13.08764 | 66 ft | 15 kts | 338° |
| 2026-05-07 20:25 | 38.17598 | 13.08822 | 63 ft | 15 kts | 37° |
| 2026-05-07 20:26 | 38.17677 | 13.08899 | 60 ft | 14 kts | 37° |
| 2026-05-07 20:26 | 38.17748 | 13.08981 | 62 ft | 14 kts | 59° |
| 2026-05-07 20:26 | 38.17791 | 13.09112 | 61 ft | 18 kts | 69° |
| 2026-05-07 20:26 | 38.17840 | 13.09258 | 67 ft | 19 kts | 65° |
| 2026-05-07 20:27 | 38.17903 | 13.09444 | 61 ft | 26 kts | 67° |
| 2026-05-07 20:27 | 38.17977 | 13.09664 | 61 ft | 27 kts | 67° |
| 2026-05-07 20:27 | 38.18048 | 13.09874 | 58 ft | 25 kts | 66° |
| 2026-05-07 20:27 | 38.18114 | 13.10070 | 60 ft | 23 kts | 67° |
| 2026-05-07 20:28 | 38.18177 | 13.10255 | 60 ft | 22 kts | 67° |
| 2026-05-07 20:28 | 38.18240 | 13.10364 | 61 ft | 13 kts | 8° |
| 2026-05-07 20:28 | 38.18307 | 13.10408 | 61 ft | 11 kts | 63° |
| 2026-05-07 20:28 | 38.18354 | 13.10483 | 62 ft | 11 kts | 25° |
| 2026-05-07 20:29 | 38.18424 | 13.10517 | 61 ft | 11 kts | 29° |
| 2026-05-07 20:29 | 38.18464 | 13.10593 | 56 ft | 10 kts | 66° |
| 2026-05-07 20:29 | 38.18500 | 13.10633 | 63 ft | 6 kts | 344° |
| 2026-05-07 20:29 | 38.18540 | 13.10613 | 58 ft | 6 kts | 338° |
| 2026-05-07 20:30 | 38.18554 | 13.10606 | 62 ft | 0 kts | 337° |